Taylor, Idaho
Current Conditions -  °F | °C
As of 4:53 PM on Monday 24 Nov 2014 (Local Time) from KIDA Reporting Station
Broken Clouds Broken Clouds  
Wind Chill: 27°   Ceiling: 12000
Heat Index: 36°   Visibility: 10mi
Dew Point: 23°   Wind: 14mph
Humidity: 59%   Direction: 190°S
Pressure: 30.32"   Gusts: NA
Location:  43.498°N, 111.73°W
Report Text: KIDA 242353Z 19012KT 10SM FEW075 BKN120 02/M05 A3032 RMK AO2 SLP293 T00221050 10050 20006 50003
Loading
Personal Weather Stations






























Interactive Weather Map New forecast layout! Learn more

10-Day Weather Forecast

Advertisements
Track Severe Weather on mobile